createdAt,value
2018-05-26T19:11:00.177Z,27.10
2018-05-26T19:13:29.739Z,27.00
2018-05-26T19:18:49.783Z,27.00
2018-05-26T19:21:17.941Z,26.90
2018-05-26T19:29:31.941Z,26.70
2018-05-26T19:32:03.932Z,26.70
2018-05-26T19:34:32.680Z,26.60
2018-05-26T19:37:05.708Z,26.60
2018-05-26T19:39:33.839Z,26.50
2018-05-26T19:42:01.401Z,26.50
2018-05-26T19:44:30.409Z,26.40
2018-05-26T19:46:58.828Z,26.40
2018-05-26T19:49:27.592Z,26.30
2018-05-26T19:51:56.050Z,26.30
2018-05-26T19:54:28.462Z,26.30
2018-05-26T19:57:04.888Z,26.30
2018-05-26T19:59:34.519Z,26.20
2018-05-26T20:02:06.826Z,26.10
2018-05-26T20:04:35.102Z,26.10
2018-05-26T20:07:03.089Z,26.10
2018-05-26T20:09:31.884Z,26.00
2018-05-26T20:12:05.101Z,26.00
2018-05-26T20:14:33.567Z,25.90
2018-05-26T20:17:03.763Z,25.90
2018-05-26T20:19:32.542Z,25.90
2018-05-26T20:37:28.090Z,25.60
2018-05-26T20:45:23.061Z,25.50
2018-05-26T20:47:51.118Z,25.40
2018-05-26T20:50:20.159Z,25.40
2018-05-26T20:52:49.352Z,25.30
2018-05-26T20:55:17.354Z,25.30
2018-05-26T20:57:46.288Z,25.20
2018-05-26T21:00:14.601Z,25.20
2018-05-26T21:02:46.768Z,25.20
2018-05-26T21:05:18.285Z,25.20
2018-05-26T21:07:47.573Z,25.20
2018-05-26T21:10:16.351Z,25.20
2018-05-26T21:12:48.601Z,25.10
2018-05-26T21:15:16.180Z,25.10
2018-05-26T21:17:45.732Z,25.00
2018-05-26T21:20:17.294Z,24.90
2018-05-26T21:22:46.853Z,24.90
2018-05-26T21:25:16.275Z,24.90
2018-05-26T21:27:51.422Z,24.90
2018-05-26T21:30:20.501Z,24.90
2018-05-26T21:32:54.653Z,24.90
2018-05-26T21:35:23.590Z,24.60
2018-05-26T21:37:56.412Z,24.50
2018-05-26T21:40:33.439Z,24.50
2018-05-26T21:43:04.563Z,24.30
2018-05-26T21:45:34.680Z,24.20
2018-05-26T21:48:05.780Z,23.90
2018-05-26T21:50:34.488Z,23.80
2018-05-26T21:53:02.532Z,23.80
2018-05-26T21:55:35.130Z,23.60
2018-05-26T21:58:07.366Z,23.50
2018-05-26T22:00:36.380Z,23.10
2018-05-26T22:03:12.134Z,23.00
2018-05-26T22:05:41.757Z,23.00
2018-05-26T22:08:13.463Z,22.90
2018-05-26T22:10:42.674Z,22.80
2018-05-26T22:13:12.331Z,22.70
2018-05-26T22:15:41.406Z,22.70
2018-05-26T22:18:12.868Z,22.70
2018-05-26T22:20:40.407Z,22.60
2018-05-26T22:23:09.174Z,22.60
2018-05-26T22:25:39.099Z,22.30
2018-05-26T22:28:07.572Z,22.30
2018-05-26T22:30:36.299Z,22.20
2018-05-26T22:33:04.833Z,22.10
2018-05-26T22:35:34.480Z,22.10
2018-05-26T22:38:06.793Z,22.30
2018-05-26T22:40:35.522Z,22.30
2018-05-26T22:43:04.205Z,22.40
2018-05-26T22:45:36.370Z,22.50
2018-05-26T22:48:08.721Z,22.60
2018-05-26T22:50:37.685Z,22.70
2018-05-26T22:53:05.953Z,22.60
2018-05-26T22:55:36.294Z,22.60
2018-05-26T22:58:08.228Z,22.60
2018-05-26T23:00:36.759Z,22.60
2018-05-26T23:03:05.761Z,22.80
2018-05-26T23:05:37.571Z,22.80
2018-05-26T23:08:05.786Z,22.90
2018-05-26T23:10:33.927Z,22.90
2018-05-26T23:13:06.547Z,22.70
2018-05-26T23:15:35.549Z,22.70
2018-05-26T23:18:04.246Z,22.70
2018-05-26T23:20:33.305Z,22.70
2018-05-26T23:23:01.618Z,22.70
2018-05-26T23:25:29.796Z,22.70
2018-05-26T23:27:59.389Z,22.70
2018-05-26T23:30:28.030Z,22.70
2018-05-26T23:32:57.200Z,22.40
2018-05-26T23:35:29.398Z,22.10
2018-05-26T23:37:58.294Z,22.10
2018-05-26T23:40:27.208Z,21.90
2018-05-26T23:42:56.912Z,21.90
2018-05-26T23:45:25.594Z,21.80
2018-05-26T23:47:55.410Z,22.00
2018-05-26T23:50:24.507Z,21.90
2018-05-26T23:52:58.411Z,22.00
2018-05-26T23:55:25.954Z,22.00
2018-05-26T23:57:53.514Z,22.00
